Illinois Logo

Beach Park, IL Single Family Real Estate Listings

71 Total Real Estate Listings * Click on table heading to sort
Date Posted Property Type Style Address Price Living Area Lot Size Price/Sq Ft.
2018-12-11 Single Family Tri-Level 12854 Suddard Street Beach Park, IL 60087 $195,000 1,900 sq. ft. 20,434 sq. ft. $103
2018-12-10 Single Family Colonial 10645 Marc Court Beach Park, IL 60087 $221,800 1,640 sq. ft. 20,042 sq. ft. $135
2018-12-10 Single Family 39361 Castleford Lane Beach Park, IL 60083 $254,900 2,492 sq. ft. 9,845 sq. ft. $102
2018-12-10 Single Family Ranch 38357 Loyola Avenue Beach Park, IL 60087 $120,000 968 sq. ft. 8,381 sq. ft. $124
2018-12-10 Single Family Colonial 10415 Ames Avenue Beach Park, IL 60087 $142,500 1,188 sq. ft. 16,174 sq. ft. $120
2018-12-07 Single Family Ranch 12530 Bonnie Brook Lane Beach Park, IL 60087 $219,000 2,599 sq. ft. 23,958 sq. ft. $84
2018-12-03 Single Family Ranch 39830 Torry Lane Beach Park, IL 60083 $219,000 1,801 sq. ft. 8,102 sq. ft. $122
2018-12-03 Single Family Colonial 39799 Torry Lane Beach Park, IL 60083 $260,000 2,600 sq. ft. 13,504 sq. ft. $100
2018-12-02 Single Family Ranch 1140 Otto Graham Lane Beach Park, IL 60099 $210,000 1,501 sq. ft. 12,632 sq. ft. $140
2018-11-27 Single Family Traditional 37215 Ganster Road Beach Park, IL 60087 $299,900 2,880 sq. ft. 54,450 sq. ft. $104
2018-11-27 Single Family 12262 29th Street Beach Park, IL 60099 $289,000 1,538 sq. ft. 211,702 sq. ft. $188
2018-11-26 Single Family 12910 Wakefield Drive Beach Park, IL 60083 $157,500 1,558 sq. ft. 3,920 sq. ft. $101
2018-11-24 Single Family 39288 Mcaree Road Beach Park, IL 60099 $134,900 1,248 sq. ft. 17,245 sq. ft. $108
2018-11-21 Single Family 37783 Dewoody Road Beach Park, IL 60087 $165,000 1,848 sq. ft. 6,752 sq. ft. $89
2018-11-16 Single Family Tri-Level 38790 Gilbert Avenue Beach Park, IL 60099 $210,000 1,400 sq. ft. 24,137 sq. ft. $150
2018-11-16 Single Family Ranch 38427 Wilson Avenue Beach Park, IL 60087 $139,900 1,560 sq. ft. 11,761 sq. ft. $90
2018-11-12 Single Family Ranch 38460 North Avenue Beach Park, IL 60087 $185,000 1,500 sq. ft. 57,935 sq. ft. $123
2018-11-12 Single Family Ranch 38289 Manor Avenue Beach Park, IL 60087 $184,900 1,384 sq. ft. 8,712 sq. ft. $134
2018-11-09 Single Family Tri-Level 38383 Wilson Avenue Beach Park, IL 60087 $159,000 1,408 sq. ft. 8,285 sq. ft. $113
2018-11-09 Single Family Traditional 39106 Ogden Lane Beach Park, IL 60083 $285,000 2,879 sq. ft. 12,197 sq. ft. $99
2018-11-08 Single Family Ranch 11132 Wadsworth Road Beach Park, IL 60099 $134,900 1,182 sq. ft. 31,363 sq. ft. $114
2018-11-06 Single Family Tri-Level 12860 Clarendon Road Beach Park, IL 60099 $254,900 1,344 sq. ft. 4,356 sq. ft. $190
2018-11-06 Single Family Ranch 10752 Wadsworth Road Beach Park, IL 60099 $249,900 2,152 sq. ft. 79,715 sq. ft. $116
2018-11-01 Single Family Tri-Level 38010 Loyola Avenue Beach Park, IL 60087 $174,900 1,576 sq. ft. 7,501 sq. ft. $111
2018-10-31 Single Family Ranch 13122 Birmingham Court Beach Park, IL 60083 $188,888 1,792 sq. ft. 5,663 sq. ft. $105
2018-10-31 Single Family Ranch 10153 California Avenue Beach Park, IL 60099 $249,900 2,988 sq. ft. 18,731 sq. ft. $84
2018-10-29 Single Family 10413 Prairie Lane Beach Park, IL 60087 $229,900 2,422 sq. ft. 23,078 sq. ft. $95
2018-10-29 Single Family 10101 Pickford Avenue Beach Park, IL 60099 $112,500 1,536 sq. ft. 8,102 sq. ft. $73
2018-10-26 Single Family 9997 Paddock Avenue Beach Park, IL 60087 $199,999 2,100 sq. ft. 19,994 sq. ft. $95
2018-10-26 Single Family Colonial 13488 Piccadilly Court Beach Park, IL 60083 $249,900 3,018 sq. ft. 15,141 sq. ft. $83
2018-10-26 Single Family Ranch 38253 Loyola Avenue Beach Park, IL 60087 $119,900 895 sq. ft. 8,381 sq. ft. $134
2018-10-25 Single Family Ranch 37211 Frolic Avenue Beach Park, IL 60087 $84,900 936 sq. ft. 47,916 sq. ft. $91
2018-10-25 Single Family 10341 California Avenue Beach Park, IL 60099 $235,000 1,645 sq. ft. 32,234 sq. ft. $143
2018-10-25 Single Family Traditional 39315 Queensbury Lane Beach Park, IL 60083 $250,000 2,470 sq. ft. 7,841 sq. ft. $101
2018-10-24 Single Family 37517 Garnett Avenue Beach Park, IL 60087 $169,900 2,010 sq. ft. 13,334 sq. ft. $85
2018-10-21 Single Family Ranch 37695 Sheridan Road Beach Park, IL 60087 $95,000 980 sq. ft. 6,351 sq. ft. $97
2018-10-19 Single Family Quad Level 1138 Beach Road Beach Park, IL 60087 $145,000 1,964 sq. ft. 6,970 sq. ft. $74
2018-10-17 Single Family 39673 Warren Lane Beach Park, IL 60083 $119,800 1,318 sq. ft. $91
2018-10-11 Single Family 39862 Walton Lane Beach Park, IL 60083 $289,900 2,940 sq. ft. 10,023 sq. ft. $99
2018-10-10 Single Family Ranch 9855 Oak Forest Drive Beach Park, IL 60099 $180,000 1,252 sq. ft. 15,682 sq. ft. $144
2018-09-27 Single Family Cape Cod 37825 Orchard Road Beach Park, IL 60087 $112,000 1,804 sq. ft. 13,486 sq. ft. $62
2018-09-25 Single Family 12109 Waldo Avenue Beach Park, IL 60087 $149,900 1,900 sq. ft. 32,234 sq. ft. $79
2018-09-25 Single Family 38468 North Shore Avenue Beach Park, IL 60087 $179,900 2,040 sq. ft. 7,841 sq. ft. $88
2018-09-24 Single Family Ranch 10459 Beach Road Beach Park, IL 60087 $175,000 1,792 sq. ft. 32,670 sq. ft. $98
2018-09-13 Single Family Ranch 12594 Yorkhouse Road Beach Park, IL 60087 $119,900 1,440 sq. ft. 13,939 sq. ft. $83
2018-09-06 Single Family 11793 Illinois Avenue Beach Park, IL 60099 $159,900 1,261 sq. ft. 51,836 sq. ft. $127
2018-09-05 Single Family Ranch 12454 Wadsworth Road Beach Park, IL 60087 $164,900 1,394 sq. ft. 78,016 sq. ft. $118
2018-09-01 Single Family Colonial 13112 Yorkshire Lane Beach Park, IL 60087 $280,000 2,879 sq. ft. 7,405 sq. ft. $97
2018-08-22 Single Family Ranch 37707 North Avenue Beach Park, IL 60087 $164,900 1,150 sq. ft. 6,203 sq. ft. $143
2018-08-22 Single Family 38172 Lincoln Avenue Beach Park, IL 60087 $174,900 1,728 sq. ft. 8,285 sq. ft. $101
2018-08-21 Single Family Ranch 38242 Harper Road Beach Park, IL 60087 $142,500 1,180 sq. ft. 10,454 sq. ft. $121
2018-08-21 Single Family Ranch 38719 Green Bay Road Beach Park, IL 60087 $100,000 1,075 sq. ft. 9,727 sq. ft. $93
2018-08-20 Single Family 12590 Chaney Street Beach Park, IL 60087 $91,500 800 sq. ft. 3,406 sq. ft. $114
2018-08-11 Single Family Cape Cod 10219 Mawman Avenue Beach Park, IL 60087 $165,900 1,593 sq. ft. 15,673 sq. ft. $104
2018-08-07 Single Family 12661 Blossom Avenue Beach Park, IL 60087 $95,812 1,087 sq. ft. 13,138 sq. ft. $88
2018-08-06 Single Family Tri-Level 12164 Graves Avenue Beach Park, IL 60087 $158,900 1,862 sq. ft. 12,140 sq. ft. $85
2018-08-03 Single Family Ranch 10269 California Avenue Beach Park, IL 60099 $195,000 3,360 sq. ft. 64,469 sq. ft. $58
2018-08-01 Single Family 10083 Ford Avenue Beach Park, IL 60099 $148,000 1,147 sq. ft. 7,000 sq. ft. $129
2018-07-25 Single Family Tri-Level 12623 Major Avenue Beach Park, IL 60099 $356,888 1,532 sq. ft. 219,146 sq. ft. $233
2018-07-24 Single Family 39068 Welsh Lane Beach Park, IL 60083 $109,900 1,445 sq. ft. $76
2018-07-11 Single Family Bi-Level 10408 Ford Avenue Beach Park, IL 60099 $224,900 2,688 sq. ft. 13,068 sq. ft. $84
2018-07-09 Single Family 39170 Holdridge Avenue Beach Park, IL 60099 $139,000 780 sq. ft. 15,246 sq. ft. $178
2018-06-26 Single Family 38633 Linden Avenue Beach Park, IL 60099 $165,000 1,664 sq. ft. 16,100 sq. ft. $99
2018-06-18 Single Family Ranch 37832 Harper Road Beach Park, IL 60087 $130,000 1,011 sq. ft. 7,841 sq. ft. $129
2018-05-13 Single Family Cape Cod 38436 Spitz Drive Beach Park, IL 60099 $109,900 1,170 sq. ft. 16,758 sq. ft. $94
2018-04-27 Single Family 10360 Yale Avenue Beach Park, IL 60099 $177,000 1,610 sq. ft. 7,619 sq. ft. $110
2018-04-17 Single Family 39640 Queensbury Lane Beach Park, IL 60083 $227,000 2,470 sq. ft. 8,006 sq. ft. $92
2018-03-07 Single Family Contemporary 12170 Bonnie Brook Lane Beach Park, IL 60087 $178,500 1,400 sq. ft. 32,147 sq. ft. $128
2017-09-20 Single Family Traditional 37695 North Avenue Beach Park, IL 60087 $200,000 1,671 sq. ft. 6,878 sq. ft. $120
2017-06-11 Single Family Ranch 10343 Wadsworth Road Beach Park, IL 60099 $124,900 1,295 sq. ft. 7,405 sq. ft. $96
2015-04-13 Single Family 39172 Green Bay Road Beach Park, IL 60087 $500,000 1,040 sq. ft. 308,840 sq. ft. $481